createdAt,value
2023-04-12T00:01:33.811Z,100231.47
2023-04-12T00:04:06.934Z,100225.56
2023-04-12T00:06:41.262Z,100237.06
2023-04-12T00:09:14.435Z,100219.97
2023-04-12T00:11:47.465Z,100218.00
2023-04-12T00:14:21.035Z,100189.63
2023-04-12T00:16:53.967Z,100195.22
2023-04-12T00:19:27.557Z,100194.81
2023-04-12T00:22:01.834Z,100196.50
2023-04-12T00:24:35.138Z,100191.31
2023-04-12T00:27:08.474Z,100197.47
2023-04-12T00:29:42.272Z,100197.19
2023-04-12T00:32:15.474Z,100190.16
2023-04-12T00:34:48.374Z,100194.66
2023-04-12T00:37:22.587Z,100180.91
2023-04-12T00:39:55.393Z,100170.38
2023-04-12T00:42:28.444Z,100171.75
2023-04-12T00:45:02.052Z,100171.06
2023-04-12T00:47:37.566Z,100163.19
2023-04-12T00:50:12.407Z,100161.78
2023-04-12T00:52:46.867Z,100146.88
2023-04-12T00:55:19.766Z,100145.75
2023-04-12T00:57:52.719Z,100144.06
2023-04-12T01:00:25.710Z,100141.69
2023-04-12T01:02:59.250Z,100131.72
2023-04-12T01:05:36.739Z,100136.50
2023-04-12T01:08:19.994Z,100128.78
2023-04-12T01:11:02.163Z,100115.44
2023-04-12T01:13:41.215Z,100119.34
2023-04-12T01:16:23.177Z,100125.00
2023-04-12T01:19:00.789Z,100114.31
2023-04-12T01:21:46.141Z,100108.16
2023-04-12T01:24:31.472Z,100095.91
2023-04-12T01:27:04.588Z,100081.06
2023-04-12T01:29:39.725Z,100081.47
2023-04-12T01:32:13.535Z,100084.16
2023-04-12T01:34:46.798Z,100078.69
2023-04-12T01:37:20.879Z,100079.09
2023-04-12T01:39:54.089Z,100067.72
2023-04-12T01:42:26.889Z,100060.69
2023-04-12T01:45:04.254Z,100062.72
2023-04-12T01:47:37.393Z,100049.47
2023-04-12T01:50:22.013Z,100049.94
2023-04-12T01:53:02.946Z,100052.16
2023-04-12T01:55:39.156Z,100050.22
2023-04-12T01:58:13.090Z,100034.06
2023-04-12T02:00:48.420Z,100033.94
2023-04-12T02:03:23.437Z,100025.66
2023-04-12T02:05:57.599Z,100012.84
2023-04-12T02:08:30.915Z,100006.28
2023-04-12T02:11:09.249Z,99993.34
2023-04-12T02:13:42.125Z,99995.50
2023-04-12T02:16:17.770Z,99985.66
2023-04-12T02:18:50.928Z,99988.88
2023-04-12T02:21:23.849Z,99977.94
2023-04-12T02:23:56.793Z,99964.88
2023-04-12T02:26:29.676Z,99974.28
2023-04-12T02:29:02.669Z,99957.19
2023-04-12T02:31:39.004Z,99948.75
2023-04-12T02:34:17.745Z,99943.03
2023-04-12T02:36:55.114Z,99943.44
2023-04-12T02:39:29.121Z,99929.41
2023-04-12T02:42:03.147Z,99927.88
2023-04-12T02:44:35.987Z,99916.41
2023-04-12T02:47:20.578Z,99918.13
2023-04-12T02:49:55.714Z,99910.38
2023-04-12T02:52:29.896Z,99898.63
2023-04-12T02:55:10.039Z,99899.47
2023-04-12T02:57:43.163Z,99893.53
2023-04-12T03:00:16.690Z,99867.22
2023-04-12T03:02:54.161Z,99867.22
2023-04-12T03:05:31.367Z,99860.06
2023-04-12T03:08:06.015Z,99852.63
2023-04-12T03:10:52.182Z,99841.72
2023-04-12T03:13:25.333Z,99850.56
2023-04-12T03:16:01.016Z,99837.91
2023-04-12T03:18:41.489Z,99814.38
2023-04-12T03:21:14.412Z,99823.66
2023-04-12T03:23:48.473Z,99814.28
2023-04-12T03:26:26.425Z,99808.25
2023-04-12T03:29:08.903Z,99806.28
2023-04-12T03:31:44.299Z,99790.88
2023-04-12T03:34:18.594Z,99794.63
2023-04-12T03:36:56.248Z,99789.59
2023-04-12T03:39:44.758Z,99784.59
2023-04-12T03:42:31.781Z,99775.03
2023-04-12T03:45:09.443Z,99760.75
2023-04-12T03:47:42.921Z,99765.94
2023-04-12T03:50:18.044Z,99752.06
2023-04-12T03:52:57.224Z,99746.88
2023-04-12T03:55:37.344Z,99737.22
2023-04-12T03:58:13.246Z,99739.00
2023-04-12T04:00:50.544Z,99736.34
2023-04-12T04:03:26.757Z,99718.69
2023-04-12T04:06:11.538Z,99711.72
2023-04-12T04:08:44.606Z,99715.06
2023-04-12T04:11:18.688Z,99693.47
2023-04-12T04:13:56.652Z,99684.94
2023-04-12T04:16:30.835Z,99685.31
2023-04-12T04:19:04.062Z,99687.97
2023-04-12T04:21:40.471Z,99683.06
2023-04-12T04:24:14.231Z,99671.72
2023-04-12T04:26:54.160Z,99664.63
2023-04-12T04:29:31.577Z,99665.72
2023-04-12T04:32:07.780Z,99664.56
2023-04-12T04:34:41.606Z,99658.41
2023-04-12T04:37:21.165Z,99660.38
2023-04-12T04:39:55.938Z,99651.09
2023-04-12T04:42:29.653Z,99646.25
2023-04-12T04:45:13.923Z,99637.38
2023-04-12T04:47:50.148Z,99637.53
2023-04-12T04:50:23.768Z,99632.19
2023-04-12T04:53:00.057Z,99630.69
2023-04-12T04:55:34.193Z,99631.09
2023-04-12T04:58:07.219Z,99625.34
2023-04-12T05:00:40.866Z,99628.69
2023-04-12T05:03:14.467Z,99620.34
2023-04-12T05:05:49.475Z,99606.88
2023-04-12T05:08:23.664Z,99614.03
2023-04-12T05:10:58.184Z,99611.06
2023-04-12T05:13:34.685Z,99589.75
2023-04-12T05:16:09.030Z,99593.09
2023-04-12T05:18:41.968Z,99590.06
2023-04-12T05:21:14.801Z,99603.66
2023-04-12T05:23:51.522Z,99600.97
2023-04-12T05:26:24.568Z,99593.16
2023-04-12T05:28:58.220Z,99588.56
2023-04-12T05:31:31.311Z,99591.97
2023-04-12T05:34:08.267Z,99583.44
2023-04-12T05:36:47.610Z,99587.41
2023-04-12T05:39:22.243Z,99576.34
2023-04-12T05:41:57.061Z,99578.13
2023-04-12T05:44:31.247Z,99570.03
2023-04-12T05:47:05.080Z,99566.22
2023-04-12T05:49:38.300Z,99558.00
2023-04-12T05:52:14.476Z,99560.06
2023-04-12T05:54:48.896Z,99560.69
2023-04-12T05:57:23.403Z,99554.63
2023-04-12T05:59:56.365Z,99548.06
2023-04-12T06:02:29.383Z,99544.44
2023-04-12T06:05:03.719Z,99537.00
2023-04-12T06:07:37.103Z,99538.28
2023-04-12T06:10:12.846Z,99525.47
2023-04-12T06:12:45.865Z,99533.66
2023-04-12T06:15:20.920Z,99514.59
2023-04-12T06:17:58.424Z,99515.53
2023-04-12T06:20:31.332Z,99514.44
2023-04-12T06:23:04.303Z,99513.69
2023-04-12T06:25:38.978Z,99502.91
2023-04-12T06:28:11.974Z,99495.00
2023-04-12T06:30:51.078Z,99501.59
2023-04-12T06:33:24.056Z,99491.34
2023-04-12T06:35:58.168Z,99487.59
2023-04-12T06:38:31.213Z,99474.31
2023-04-12T06:41:05.830Z,99472.03
2023-04-12T06:43:38.840Z,99467.06
2023-04-12T06:46:11.822Z,99471.31
2023-04-12T06:48:44.667Z,99462.44
2023-04-12T06:51:18.631Z,99466.00
2023-04-12T06:53:51.480Z,99448.53
2023-04-12T06:56:26.058Z,99448.34
2023-04-12T06:58:59.402Z,99441.44
2023-04-12T07:01:32.553Z,99433.22
2023-04-12T07:04:05.910Z,99434.84
2023-04-12T07:06:39.015Z,99431.28
2023-04-12T07:09:12.217Z,99429.97
2023-04-12T07:11:48.487Z,99429.72
2023-04-12T07:14:21.326Z,99419.16
2023-04-12T07:16:54.244Z,99420.22
2023-04-12T07:19:27.444Z,99422.28
2023-04-12T07:22:00.734Z,99412.00
2023-04-12T07:24:33.784Z,99414.22
2023-04-12T07:27:08.155Z,99410.25
2023-04-12T07:29:41.226Z,99406.91
2023-04-12T07:32:14.010Z,99407.00
2023-04-12T07:34:46.948Z,99402.34
2023-04-12T07:37:20.291Z,99392.59
2023-04-12T07:39:53.241Z,99385.22
2023-04-12T07:42:27.551Z,99372.97
2023-04-12T07:45:00.519Z,99382.22
2023-04-12T07:47:33.786Z,99380.28
2023-04-12T07:50:08.364Z,99368.63
2023-04-12T07:52:41.336Z,99370.34
2023-04-12T07:55:14.226Z,99369.34
2023-04-12T07:57:48.337Z,99367.06
2023-04-12T08:00:22.452Z,99362.13
2023-04-12T08:02:56.807Z,99363.56
2023-04-12T08:05:29.981Z,99361.16
2023-04-12T08:08:04.113Z,99363.44
2023-04-12T08:10:37.711Z,99347.22
2023-04-12T08:13:11.924Z,99358.91
2023-04-12T08:15:47.082Z,99353.91
2023-04-12T08:18:19.726Z,99359.88
2023-04-12T08:20:52.830Z,99351.50
2023-04-12T08:23:27.195Z,99358.44
2023-04-12T08:26:03.861Z,99350.75
2023-04-12T08:28:39.686Z,99368.78
2023-04-12T08:31:13.320Z,99369.06
2023-04-12T08:33:46.581Z,99358.00
2023-04-12T08:36:19.665Z,99358.88
2023-04-12T08:38:55.447Z,99360.63
2023-04-12T08:41:28.548Z,99348.19
2023-04-12T08:44:03.410Z,99336.50
2023-04-12T08:46:37.036Z,99331.72
2023-04-12T08:49:11.514Z,99328.28
2023-04-12T08:51:44.753Z,99327.78
2023-04-12T08:54:17.723Z,99329.47
2023-04-12T08:56:50.664Z,99321.13
2023-04-12T08:59:25.912Z,99325.28
2023-04-12T09:02:00.398Z,99326.13
2023-04-12T09:04:33.421Z,99329.28
2023-04-12T09:07:06.772Z,99325.44
2023-04-12T09:09:43.504Z,99327.63
2023-04-12T09:12:20.275Z,99318.78
2023-04-12T09:15:09.509Z,99324.97
2023-04-12T09:17:43.136Z,99321.09
2023-04-12T09:20:26.107Z,99311.91
2023-04-12T09:22:59.682Z,99307.25
2023-04-12T09:25:41.124Z,99311.41
2023-04-12T09:28:22.503Z,99311.44
2023-04-12T09:30:58.402Z,99321.44
2023-04-12T09:33:36.911Z,99309.59
2023-04-12T09:36:13.532Z,99314.09
2023-04-12T09:39:01.756Z,99313.09
2023-04-12T09:41:35.285Z,99318.13
2023-04-12T09:44:08.401Z,99303.94
2023-04-12T09:46:51.812Z,99311.34
2023-04-12T09:49:38.115Z,99320.19
2023-04-12T09:52:15.339Z,99308.66
2023-04-12T09:54:49.677Z,99313.88
2023-04-12T09:57:24.851Z,99299.69
2023-04-12T10:00:03.710Z,99308.69
2023-04-12T10:02:47.712Z,99307.75
2023-04-12T10:05:26.245Z,99310.09
2023-04-12T10:08:01.250Z,99301.22
2023-04-12T10:10:36.793Z,99301.34
2023-04-12T10:13:11.307Z,99300.00
2023-04-12T10:15:49.557Z,99297.69
2023-04-12T10:18:28.156Z,99296.63
2023-04-12T10:21:02.885Z,99291.84
2023-04-12T10:23:36.447Z,99292.78
2023-04-12T10:26:09.621Z,99279.25
2023-04-12T10:28:46.713Z,99281.00
2023-04-12T10:31:30.066Z,99289.34
2023-04-12T10:34:04.576Z,99281.38
2023-04-12T10:36:53.987Z,99275.06
2023-04-12T10:39:39.406Z,99275.06
2023-04-12T10:42:20.499Z,99276.75
2023-04-12T10:44:55.990Z,99267.13
2023-04-12T10:48:04.201Z,99244.09
2023-04-12T10:50:38.654Z,99262.25
2023-04-12T10:53:27.233Z,99261.13
2023-04-12T10:56:00.541Z,99262.91
2023-04-12T10:59:07.011Z,99265.91
2023-04-12T11:02:12.242Z,99273.16
2023-04-12T11:05:09.589Z,99272.81
2023-04-12T11:07:57.264Z,99266.09
2023-04-12T11:10:47.404Z,99270.72
2023-04-12T11:13:30.632Z,99290.97
2023-04-12T11:16:04.796Z,99289.69
2023-04-12T11:18:40.257Z,99304.91
2023-04-12T11:21:15.701Z,99311.75
2023-04-12T11:23:49.993Z,99314.19
2023-04-12T11:26:23.058Z,99313.72
2023-04-12T11:28:56.498Z,99313.44
2023-04-12T11:31:29.697Z,99322.72
2023-04-12T11:34:02.526Z,99316.53
2023-04-12T11:36:35.479Z,99310.13
2023-04-12T11:39:09.978Z,99296.28
2023-04-12T11:41:45.275Z,99294.44
2023-04-12T11:44:18.981Z,99277.56
2023-04-12T11:46:52.485Z,99283.38
2023-04-12T11:49:25.913Z,99282.50
2023-04-12T11:52:06.095Z,99297.72
2023-04-12T11:54:43.121Z,99288.47
2023-04-12T11:57:17.748Z,99291.47
2023-04-12T11:59:51.311Z,99296.38
2023-04-12T12:02:25.210Z,99301.72
2023-04-12T12:04:59.629Z,99307.09
2023-04-12T12:07:33.026Z,99296.56
2023-04-12T12:10:09.174Z,99303.91
2023-04-12T12:12:45.087Z,99302.69
2023-04-12T12:15:17.950Z,99311.13
2023-04-12T12:17:53.020Z,99303.34
2023-04-12T12:20:27.256Z,99311.34
2023-04-12T12:23:00.108Z,99318.72
2023-04-12T12:25:34.639Z,99312.78
2023-04-12T12:28:14.366Z,99297.03
2023-04-12T12:30:47.307Z,99293.50
2023-04-12T12:33:21.898Z,99280.13
2023-04-12T12:35:59.696Z,99286.66
2023-04-12T12:38:37.625Z,99276.97
2023-04-12T12:41:17.947Z,99282.56
2023-04-12T12:43:52.899Z,99278.00
2023-04-12T12:48:59.296Z,99275.16
2023-04-12T12:51:32.480Z,99270.31
2023-04-12T12:54:07.915Z,99260.72
2023-04-12T12:56:42.175Z,99265.81
2023-04-12T12:59:17.360Z,99257.81
2023-04-12T13:01:50.784Z,99257.13
2023-04-12T13:04:23.892Z,99248.34
2023-04-12T13:06:56.804Z,99249.59
2023-04-12T13:09:29.803Z,99260.00
2023-04-12T13:12:04.102Z,99257.44
2023-04-12T13:14:36.915Z,99260.03
2023-04-12T13:17:10.320Z,99260.03
2023-04-12T13:19:43.256Z,99252.97
2023-04-12T13:22:16.638Z,99236.88
2023-04-12T13:24:49.909Z,99234.75
2023-04-12T13:27:24.072Z,99236.25
2023-04-12T13:29:56.869Z,99250.09
2023-04-12T13:32:29.987Z,99237.66
2023-04-12T13:35:04.334Z,99236.00
2023-04-12T13:37:37.375Z,99240.97
2023-04-12T13:40:10.977Z,99226.03
2023-04-12T13:42:45.283Z,99226.84
2023-04-12T13:45:18.177Z,99229.56
2023-04-12T13:47:51.183Z,99212.59
2023-04-12T13:50:24.009Z,99214.66
2023-04-12T13:52:56.833Z,99213.53
2023-04-12T13:55:29.932Z,99217.25
2023-04-12T13:58:04.082Z,99222.50
2023-04-12T14:00:37.253Z,99230.16
2023-04-12T14:03:10.147Z,99225.41
2023-04-12T14:05:43.076Z,99225.22
2023-04-12T14:08:15.903Z,99255.75
2023-04-12T14:10:48.796Z,99268.13
2023-04-12T14:13:23.415Z,99278.94
2023-04-12T14:15:57.368Z,99290.22
2023-04-12T14:18:30.362Z,99287.75
2023-04-12T14:21:03.969Z,99307.31
2023-04-12T14:23:38.141Z,99319.63
2023-04-12T14:26:17.173Z,99316.16
2023-04-12T14:28:51.564Z,99317.31
2023-04-12T14:31:24.782Z,99324.22
2023-04-12T14:33:57.861Z,99331.66
2023-04-12T14:36:31.743Z,99331.91
2023-04-12T14:39:07.728Z,99346.47
2023-04-12T14:41:42.346Z,99351.28
2023-04-12T14:44:18.791Z,99358.75
2023-04-12T14:46:53.153Z,99364.00
2023-04-12T14:49:26.736Z,99356.19
2023-04-12T14:51:59.887Z,99342.50
2023-04-12T14:54:32.720Z,99356.31
2023-04-12T14:57:05.556Z,99369.50
2023-04-12T14:59:39.960Z,99363.09
2023-04-12T15:02:12.966Z,99367.75
2023-04-12T15:04:49.178Z,99372.34
2023-04-12T15:07:22.113Z,99373.78
2023-04-12T15:09:57.301Z,99365.38
2023-04-12T15:12:30.084Z,99366.19
2023-04-12T15:15:06.343Z,99359.38
2023-04-12T15:17:39.433Z,99369.03
2023-04-12T15:20:17.145Z,99372.22
2023-04-12T15:22:50.500Z,99373.81
2023-04-12T15:25:23.852Z,99377.69
2023-04-12T15:27:57.353Z,99366.13
2023-04-12T15:30:32.633Z,99366.69
2023-04-12T15:33:05.533Z,99368.47
2023-04-12T15:35:38.396Z,99376.50
2023-04-12T15:38:15.112Z,99384.84
2023-04-12T15:40:55.591Z,99386.47
2023-04-12T15:43:29.111Z,99389.84
2023-04-12T15:46:03.529Z,99404.59
2023-04-12T15:48:39.311Z,99402.94
2023-04-12T15:51:13.768Z,99417.63
2023-04-12T15:53:46.601Z,99417.94
2023-04-12T15:56:23.850Z,99406.59
2023-04-12T15:58:57.928Z,99418.59
2023-04-12T16:01:32.661Z,99418.63
2023-04-12T16:04:06.968Z,99401.19
2023-04-12T16:06:40.245Z,99400.63
2023-04-12T16:09:13.381Z,99401.78
2023-04-12T16:11:47.987Z,99397.06
2023-04-12T16:14:20.892Z,99401.41
2023-04-12T16:16:55.134Z,99405.19
2023-04-12T16:19:28.159Z,99393.66
2023-04-12T16:22:01.668Z,99397.81
2023-04-12T16:24:34.508Z,99408.06
2023-04-12T16:27:08.263Z,99421.06
2023-04-12T16:29:41.258Z,99402.88
2023-04-12T16:32:15.709Z,99418.44
2023-04-12T16:34:48.759Z,99421.34
2023-04-12T16:37:21.882Z,99421.41
2023-04-12T16:39:54.684Z,99431.81
2023-04-12T16:42:31.548Z,99433.06
2023-04-12T16:45:05.460Z,99443.25
2023-04-12T16:47:41.096Z,99448.00
2023-04-12T16:50:14.088Z,99452.88
2023-04-12T16:52:47.388Z,99460.31
2023-04-12T16:55:20.530Z,99461.56
2023-04-12T16:57:53.737Z,99459.56
2023-04-12T17:00:29.172Z,99478.06
2023-04-12T17:03:03.890Z,99452.97
2023-04-12T17:05:37.148Z,99460.97
2023-04-12T17:08:09.919Z,99459.03
2023-04-12T17:10:42.959Z,99462.47
2023-04-12T17:13:19.434Z,99466.06
2023-04-12T17:15:53.398Z,99451.88
2023-04-12T17:18:27.620Z,99457.25
2023-04-12T17:21:00.660Z,99443.63
2023-04-12T17:23:33.478Z,99418.75
2023-04-12T17:26:08.250Z,99395.72
2023-04-12T17:28:41.495Z,99396.31
2023-04-12T17:31:15.378Z,99393.25
2023-04-12T17:33:49.606Z,99406.44
2023-04-12T17:36:22.544Z,99410.34
2023-04-12T17:38:57.053Z,99416.22
2023-04-12T17:41:29.959Z,99422.22
2023-04-12T17:44:02.828Z,99425.53
2023-04-12T17:46:36.434Z,99416.28
2023-04-12T17:49:10.644Z,99414.94
2023-04-12T17:51:43.400Z,99422.28
2023-04-12T17:54:16.801Z,99419.75
2023-04-12T17:56:50.249Z,99416.22
2023-04-12T17:59:23.246Z,99422.56
2023-04-12T18:01:57.229Z,99427.72
2023-04-12T18:04:32.033Z,99420.06
2023-04-12T18:07:08.607Z,99417.03
2023-04-12T18:09:44.876Z,99411.38
2023-04-12T18:12:17.788Z,99430.63
2023-04-12T18:14:50.766Z,99430.84
2023-04-12T18:17:25.750Z,99431.59
2023-04-12T18:20:02.623Z,99421.41
2023-04-12T18:22:36.058Z,99424.75
2023-04-12T18:25:10.105Z,99421.34
2023-04-12T18:27:43.032Z,99424.31
2023-04-12T18:30:17.309Z,99419.69
2023-04-12T18:32:50.393Z,99414.97
2023-04-12T18:35:24.759Z,99415.66
2023-04-12T18:37:57.609Z,99404.50
2023-04-12T18:40:30.482Z,99415.00
2023-04-12T18:43:03.703Z,99424.28
2023-04-12T18:45:40.045Z,99427.56
2023-04-12T18:48:12.905Z,99440.53
2023-04-12T18:50:49.377Z,99442.16
2023-04-12T18:53:22.226Z,99448.63
2023-04-12T18:55:55.117Z,99451.00
2023-04-12T18:58:36.997Z,99458.09
2023-04-12T19:01:19.460Z,99469.53
2023-04-12T19:03:52.796Z,99471.06
2023-04-12T19:06:27.084Z,99474.56
2023-04-12T19:08:59.888Z,99480.53
2023-04-12T19:11:37.204Z,99477.88
2023-04-12T19:14:10.479Z,99466.41
2023-04-12T19:16:43.424Z,99465.66
2023-04-12T19:19:16.684Z,99457.09
2023-04-12T19:21:51.085Z,99463.97
2023-04-12T19:24:24.014Z,99460.41
2023-04-12T19:26:57.474Z,99460.41
2023-04-12T19:29:30.277Z,99459.00
2023-04-12T19:32:06.312Z,99459.06
2023-04-12T19:34:39.305Z,99454.91
2023-04-12T19:37:13.525Z,99457.72
2023-04-12T19:39:46.694Z,99453.50
2023-04-12T19:42:19.523Z,99454.44
2023-04-12T19:44:52.655Z,99460.22
2023-04-12T19:47:25.853Z,99460.59
2023-04-12T19:49:58.805Z,99456.00
2023-04-12T19:52:33.243Z,99462.75
2023-04-12T19:55:07.149Z,99466.91
2023-04-12T19:57:41.545Z,99465.53
2023-04-12T20:00:19.289Z,99468.03
2023-04-12T20:02:53.864Z,99457.97
2023-04-12T20:05:27.511Z,99452.31
2023-04-12T20:08:02.350Z,99455.50
2023-04-12T20:10:35.277Z,99448.47
2023-04-12T20:13:15.129Z,99446.91
2023-04-12T20:15:48.633Z,99443.88
2023-04-12T20:18:21.691Z,99442.22
2023-04-12T20:20:57.522Z,99437.72
2023-04-12T20:23:31.934Z,99445.56
2023-04-12T20:26:05.430Z,99440.00
2023-04-12T20:28:38.467Z,99436.06
2023-04-12T20:31:12.748Z,99437.34
2023-04-12T20:33:45.682Z,99439.75
2023-04-12T20:36:18.575Z,99436.25
2023-04-12T20:38:53.596Z,99435.53
2023-04-12T20:41:26.257Z,99442.09
2023-04-12T20:43:59.400Z,99429.38
2023-04-12T20:46:36.830Z,99422.41
2023-04-12T20:49:10.181Z,99434.16
2023-04-12T20:51:46.745Z,99431.91
2023-04-12T20:54:24.164Z,99429.09
2023-04-12T20:56:58.829Z,99431.06
2023-04-12T20:59:31.900Z,99428.13
2023-04-12T21:02:04.883Z,99431.63
2023-04-12T21:04:39.590Z,99432.19
2023-04-12T21:07:12.624Z,99432.19
2023-04-12T21:09:47.088Z,99424.06
2023-04-12T21:12:19.886Z,99424.94
2023-04-12T21:14:52.716Z,99413.44
2023-04-12T21:17:30.084Z,99411.78
2023-04-12T21:20:13.574Z,99419.03
2023-04-12T21:22:56.253Z,99418.91
2023-04-12T21:25:35.380Z,99415.41
2023-04-12T21:28:13.447Z,99427.28
2023-04-12T21:30:54.485Z,99413.72
2023-04-12T21:33:27.363Z,99411.66
2023-04-12T21:36:00.211Z,99418.06
2023-04-12T21:38:33.099Z,99412.09
2023-04-12T21:41:08.076Z,99410.41
2023-04-12T21:43:41.453Z,99405.66
2023-04-12T21:46:14.568Z,99405.94
2023-04-12T21:48:47.870Z,99393.06
2023-04-12T21:51:20.933Z,99395.16
2023-04-12T21:53:53.781Z,99394.19
2023-04-12T21:56:28.396Z,99390.69
2023-04-12T21:59:01.919Z,99394.47
2023-04-12T22:01:34.909Z,99389.44
2023-04-12T22:04:07.907Z,99383.72
2023-04-12T22:06:41.041Z,99383.56
2023-04-12T22:09:13.978Z,99374.66
2023-04-12T22:11:49.022Z,99357.34
2023-04-12T22:14:23.748Z,99369.47
2023-04-12T22:16:57.488Z,99380.38
2023-04-12T22:19:30.472Z,99367.81
2023-04-12T22:22:04.015Z,99370.03
2023-04-12T22:24:37.244Z,99368.78
2023-04-12T22:27:11.585Z,99371.13
2023-04-12T22:29:44.511Z,99361.50
2023-04-12T22:32:17.301Z,99371.44
2023-04-12T22:34:58.106Z,99360.94
2023-04-12T22:37:41.970Z,99347.66
2023-04-12T22:40:14.859Z,99354.19
2023-04-12T22:42:49.431Z,99349.59
2023-04-12T22:45:22.271Z,99346.69
2023-04-12T22:47:55.141Z,99345.28
2023-04-12T22:50:27.996Z,99343.34
2023-04-12T22:53:02.876Z,99340.84
2023-04-12T22:55:47.925Z,99340.16
2023-04-12T22:58:22.201Z,99336.94
2023-04-12T23:00:55.300Z,99332.19
2023-04-12T23:03:28.669Z,99333.31
2023-04-12T23:06:01.979Z,99329.09
2023-04-12T23:08:34.929Z,99320.75
2023-04-12T23:11:11.528Z,99318.25
2023-04-12T23:13:48.041Z,99321.31
2023-04-12T23:16:21.246Z,99313.63
2023-04-12T23:19:09.040Z,99313.22
2023-04-12T23:21:47.197Z,99293.13
2023-04-12T23:24:24.579Z,99285.84
2023-04-12T23:27:10.064Z,99301.22
2023-04-12T23:30:07.800Z,99262.97
2023-04-12T23:32:41.536Z,99216.66
2023-04-12T23:35:15.358Z,99286.28
2023-04-12T23:37:48.495Z,99284.47
2023-04-12T23:40:21.518Z,99273.03
2023-04-12T23:42:54.318Z,99272.31
2023-04-12T23:45:29.065Z,99270.09
2023-04-12T23:48:01.912Z,99274.81
2023-04-12T23:50:34.825Z,99266.16
2023-04-12T23:53:07.950Z,99258.91
2023-04-12T23:55:42.407Z,99262.25
2023-04-12T23:58:15.618Z,99257.38
